sensor_id;sensor_type;location;lat;lon;timestamp;temperature;humidity
21489;DHT22;10906;45.194;5.684;2023-08-08T05:01:04;14.70;81.50
21489;DHT22;10906;45.194;5.684;2023-08-08T05:03:48;14.50;82.40
21489;DHT22;10906;45.194;5.684;2023-08-08T05:06:33;14.50;82.90
21489;DHT22;10906;45.194;5.684;2023-08-08T05:09:18;14.50;82.30
21489;DHT22;10906;45.194;5.684;2023-08-08T05:12:02;14.50;84.00
21489;DHT22;10906;45.194;5.684;2023-08-08T05:14:46;14.50;82.60
21489;DHT22;10906;45.194;5.684;2023-08-08T05:17:30;14.60;82.70
21489;DHT22;10906;45.194;5.684;2023-08-08T05:20:16;14.60;82.80
21489;DHT22;10906;45.194;5.684;2023-08-08T05:23:00;14.60;82.60
21489;DHT22;10906;45.194;5.684;2023-08-08T05:25:45;14.70;82.80
21489;DHT22;10906;45.194;5.684;2023-08-08T05:28:29;14.60;83.20
21489;DHT22;10906;45.194;5.684;2023-08-08T05:31:14;14.70;83.30
21489;DHT22;10906;45.194;5.684;2023-08-08T05:33:58;14.80;83.00
21489;DHT22;10906;45.194;5.684;2023-08-08T05:36:42;14.80;83.30
21489;DHT22;10906;45.194;5.684;2023-08-08T05:39:26;14.80;83.40
21489;DHT22;10906;45.194;5.684;2023-08-08T05:42:11;14.90;82.70
21489;DHT22;10906;45.194;5.684;2023-08-08T05:44:55;15.10;82.90
21489;DHT22;10906;45.194;5.684;2023-08-08T05:47:39;15.00;83.10
21489;DHT22;10906;45.194;5.684;2023-08-08T05:50:23;15.20;82.90
21489;DHT22;10906;45.194;5.684;2023-08-08T05:53:08;15.20;83.20
21489;DHT22;10906;45.194;5.684;2023-08-08T05:55:52;15.30;83.10
21489;DHT22;10906;45.194;5.684;2023-08-08T05:58:36;15.30;83.30
21489;DHT22;10906;45.194;5.684;2023-08-08T06:01:23;15.40;82.70
21489;DHT22;10906;45.194;5.684;2023-08-08T06:04:08;15.30;83.00
21489;DHT22;10906;45.194;5.684;2023-08-08T06:06:52;15.40;83.40
21489;DHT22;10906;45.194;5.684;2023-08-08T06:09:36;15.40;83.40
21489;DHT22;10906;45.194;5.684;2023-08-08T06:12:21;15.60;83.40
21489;DHT22;10906;45.194;5.684;2023-08-08T06:15:05;15.50;83.30
21489;DHT22;10906;45.194;5.684;2023-08-08T06:17:50;15.60;83.20
21489;DHT22;10906;45.194;5.684;2023-08-08T06:20:34;15.60;82.70
21489;DHT22;10906;45.194;5.684;2023-08-08T06:23:18;15.60;82.60
21489;DHT22;10906;45.194;5.684;2023-08-08T06:26:02;15.60;82.60
21489;DHT22;10906;45.194;5.684;2023-08-08T06:28:47;15.70;83.30
21489;DHT22;10906;45.194;5.684;2023-08-08T06:31:31;15.70;83.50
21489;DHT22;10906;45.194;5.684;2023-08-08T06:34:16;15.80;81.80
21489;DHT22;10906;45.194;5.684;2023-08-08T06:37:00;15.80;81.30
21489;DHT22;10906;45.194;5.684;2023-08-08T06:39:47;15.90;81.90
21489;DHT22;10906;45.194;5.684;2023-08-08T06:42:31;15.90;81.90
21489;DHT22;10906;45.194;5.684;2023-08-08T06:45:15;16.00;82.80
21489;DHT22;10906;45.194;5.684;2023-08-08T06:48:00;16.10;81.50
21489;DHT22;10906;45.194;5.684;2023-08-08T06:50:44;16.20;81.80
21489;DHT22;10906;45.194;5.684;2023-08-08T06:53:29;16.30;82.20
21489;DHT22;10906;45.194;5.684;2023-08-08T06:56:13;16.40;81.50
21489;DHT22;10906;45.194;5.684;2023-08-08T06:58:57;16.40;80.90
21489;DHT22;10906;45.194;5.684;2023-08-08T07:01:41;16.50;80.80
21489;DHT22;10906;45.194;5.684;2023-08-08T07:04:26;16.60;80.40
21489;DHT22;10906;45.194;5.684;2023-08-08T07:07:10;16.60;79.40
21489;DHT22;10906;45.194;5.684;2023-08-08T07:09:54;16.70;79.60
21489;DHT22;10906;45.194;5.684;2023-08-08T07:12:38;16.80;79.20
21489;DHT22;10906;45.194;5.684;2023-08-08T07:15:22;16.90;78.70
21489;DHT22;10906;45.194;5.684;2023-08-08T07:18:08;17.00;78.60
21489;DHT22;10906;45.194;5.684;2023-08-08T07:20:52;17.10;78.80
21489;DHT22;10906;45.194;5.684;2023-08-08T07:23:37;17.10;78.90
21489;DHT22;10906;45.194;5.684;2023-08-08T07:26:21;17.20;78.50
21489;DHT22;10906;45.194;5.684;2023-08-08T07:29:06;17.20;78.70
21489;DHT22;10906;45.194;5.684;2023-08-08T07:32:06;17.30;78.50
21489;DHT22;10906;45.194;5.684;2023-08-08T07:34:59;17.60;79.00
21489;DHT22;10906;45.194;5.684;2023-08-08T07:37:47;17.60;79.00
21489;DHT22;10906;45.194;5.684;2023-08-08T07:40:31;18.10;77.70
21489;DHT22;10906;45.194;5.684;2023-08-08T07:43:16;18.10;78.10
21489;DHT22;10906;45.194;5.684;2023-08-08T07:46:00;18.40;76.30
21489;DHT22;10906;45.194;5.684;2023-08-08T07:48:44;18.50;76.60
21489;DHT22;10906;45.194;5.684;2023-08-08T07:51:28;18.60;75.10
21489;DHT22;10906;45.194;5.684;2023-08-08T07:54:13;18.70;75.30
21489;DHT22;10906;45.194;5.684;2023-08-08T07:56:57;18.90;74.00
21489;DHT22;10906;45.194;5.684;2023-08-08T07:59:41;18.80;74.20
21489;DHT22;10906;45.194;5.684;2023-08-08T08:02:26;19.10;74.60
21489;DHT22;10906;45.194;5.684;2023-08-08T08:05:11;19.50;72.60
21489;DHT22;10906;45.194;5.684;2023-08-08T08:07:55;19.50;72.70
21489;DHT22;10906;45.194;5.684;2023-08-08T08:10:39;19.70;71.10
21489;DHT22;10906;45.194;5.684;2023-08-08T08:13:24;19.70;72.00
21489;DHT22;10906;45.194;5.684;2023-08-08T08:16:08;20.00;71.30
21489;DHT22;10906;45.194;5.684;2023-08-08T08:18:52;20.00;71.90
21489;DHT22;10906;45.194;5.684;2023-08-08T08:21:36;20.30;69.70
21489;DHT22;10906;45.194;5.684;2023-08-08T08:24:34;20.40;69.70
21489;DHT22;10906;45.194;5.684;2023-08-08T08:27:19;20.60;68.30
21489;DHT22;10906;45.194;5.684;2023-08-08T08:30:06;20.60;68.40
21489;DHT22;10906;45.194;5.684;2023-08-08T08:32:52;21.00;69.00
21489;DHT22;10906;45.194;5.684;2023-08-08T08:35:36;21.00;69.10
21489;DHT22;10906;45.194;5.684;2023-08-08T08:38:22;21.20;68.60
21489;DHT22;10906;45.194;5.684;2023-08-08T08:41:06;21.20;67.00
21489;DHT22;10906;45.194;5.684;2023-08-08T08:43:53;21.40;68.30
21489;DHT22;10906;45.194;5.684;2023-08-08T08:46:38;21.40;68.70
21489;DHT22;10906;45.194;5.684;2023-08-08T08:49:26;21.70;65.60
21489;DHT22;10906;45.194;5.684;2023-08-08T08:52:57;22.10;67.40
21489;DHT22;10906;45.194;5.684;2023-08-08T08:55:22;22.10;65.30
21489;DHT22;10906;45.194;5.684;2023-08-08T08:58:09;22.30;62.50
21489;DHT22;10906;45.194;5.684;2023-08-08T09:04:16;22.40;63.90
21489;DHT22;10906;45.194;5.684;2023-08-08T09:07:30;22.50;62.80
21489;DHT22;10906;45.194;5.684;2023-08-08T09:42:04;24.00;58.00
21489;DHT22;10906;45.194;5.684;2023-08-08T09:44:50;24.00;59.30
21489;DHT22;10906;45.194;5.684;2023-08-08T09:47:34;23.80;57.00
21489;DHT22;10906;45.194;5.684;2023-08-08T09:50:19;23.70;57.90
21489;DHT22;10906;45.194;5.684;2023-08-08T09:53:03;23.50;58.70
21489;DHT22;10906;45.194;5.684;2023-08-08T09:55:48;23.40;59.50
21489;DHT22;10906;45.194;5.684;2023-08-08T09:58:32;23.60;60.50
21489;DHT22;10906;45.194;5.684;2023-08-08T10:01:17;24.10;59.00
21489;DHT22;10906;45.194;5.684;2023-08-08T10:04:03;24.10;59.40
21489;DHT22;10906;45.194;5.684;2023-08-08T10:06:47;24.30;59.60
21489;DHT22;10906;45.194;5.684;2023-08-08T10:09:31;24.40;65.60
21489;DHT22;10906;45.194;5.684;2023-08-08T10:12:17;24.70;60.90
21489;DHT22;10906;45.194;5.684;2023-08-08T10:15:03;24.70;60.10
21489;DHT22;10906;45.194;5.684;2023-08-08T10:17:52;24.70;56.50
21489;DHT22;10906;45.194;5.684;2023-08-08T10:20:37;24.50;59.60
21489;DHT22;10906;45.194;5.684;2023-08-08T10:23:22;24.20;60.20
21489;DHT22;10906;45.194;5.684;2023-08-08T10:26:16;24.70;64.00
21489;DHT22;10906;45.194;5.684;2023-08-08T10:29:01;25.30;59.70
21489;DHT22;10906;45.194;5.684;2023-08-08T10:32:21;25.00;60.90
21489;DHT22;10906;45.194;5.684;2023-08-08T10:34:56;25.30;59.50
21489;DHT22;10906;45.194;5.684;2023-08-08T10:53:22;25.40;57.70
21489;DHT22;10906;45.194;5.684;2023-08-08T10:56:06;25.50;57.00
21489;DHT22;10906;45.194;5.684;2023-08-08T10:58:56;25.20;59.00
21489;DHT22;10906;45.194;5.684;2023-08-08T11:01:46;25.60;62.30
21489;DHT22;10906;45.194;5.684;2023-08-08T11:04:35;25.70;57.30
21489;DHT22;10906;45.194;5.684;2023-08-08T11:07:32;25.00;57.20
21489;DHT22;10906;45.194;5.684;2023-08-08T11:13:27;24.70;54.60
21489;DHT22;10906;45.194;5.684;2023-08-08T11:16:41;25.00;56.60
21489;DHT22;10906;45.194;5.684;2023-08-08T11:26:34;25.50;52.90
21489;DHT22;10906;45.194;5.684;2023-08-08T11:29:22;25.60;56.10
21489;DHT22;10906;45.194;5.684;2023-08-08T11:39:05;25.70;54.60
21489;DHT22;10906;45.194;5.684;2023-08-08T11:58:49;26.00;53.60
21489;DHT22;10906;45.194;5.684;2023-08-08T12:32:54;30.70;54.00
21489;DHT22;10906;45.194;5.684;2023-08-08T12:35:47;29.00;54.40
21489;DHT22;10906;45.194;5.684;2023-08-08T12:38:51;26.60;53.40
21489;DHT22;10906;45.194;5.684;2023-08-08T12:41:53;27.30;56.70
21489;DHT22;10906;45.194;5.684;2023-08-08T12:44:37;27.60;52.00
21489;DHT22;10906;45.194;5.684;2023-08-08T12:47:39;27.60;54.40
21489;DHT22;10906;45.194;5.684;2023-08-08T12:50:29;28.40;49.90
21489;DHT22;10906;45.194;5.684;2023-08-08T12:53:49;27.70;50.10
21489;DHT22;10906;45.194;5.684;2023-08-08T12:56:37;29.10;51.10
21489;DHT22;10906;45.194;5.684;2023-08-08T12:59:24;28.90;50.90
21489;DHT22;10906;45.194;5.684;2023-08-08T13:05:56;26.30;50.80
21489;DHT22;10906;45.194;5.684;2023-08-08T13:08:46;31.00;52.60
21489;DHT22;10906;45.194;5.684;2023-08-08T13:15:07;28.30;53.80
21489;DHT22;10906;45.194;5.684;2023-08-08T13:18:05;27.90;54.70
21489;DHT22;10906;45.194;5.684;2023-08-08T13:20:59;27.60;54.00
21489;DHT22;10906;45.194;5.684;2023-08-08T13:23:43;26.90;49.40
21489;DHT22;10906;45.194;5.684;2023-08-08T13:26:39;27.90;48.90
21489;DHT22;10906;45.194;5.684;2023-08-08T13:29:23;28.50;50.70
21489;DHT22;10906;45.194;5.684;2023-08-08T13:35:18;27.80;48.00
21489;DHT22;10906;45.194;5.684;2023-08-08T13:38:03;27.80;47.30
21489;DHT22;10906;45.194;5.684;2023-08-08T13:40:50;27.70;47.00
21489;DHT22;10906;45.194;5.684;2023-08-08T13:43:34;24.60;46.80
21489;DHT22;10906;45.194;5.684;2023-08-08T13:46:28;27.90;49.00
21489;DHT22;10906;45.194;5.684;2023-08-08T13:49:12;28.10;48.10
21489;DHT22;10906;45.194;5.684;2023-08-08T13:55:30;27.90;48.50
21489;DHT22;10906;45.194;5.684;2023-08-08T13:58:23;28.10;49.50
21489;DHT22;10906;45.194;5.684;2023-08-08T14:01:07;28.90;50.40
21489;DHT22;10906;45.194;5.684;2023-08-08T14:03:52;28.50;53.20
21489;DHT22;10906;45.194;5.684;2023-08-08T14:06:44;28.70;49.50
21489;DHT22;10906;45.194;5.684;2023-08-08T14:13:20;29.70;49.00
21489;DHT22;10906;45.194;5.684;2023-08-08T14:16:39;29.40;49.30
21489;DHT22;10906;45.194;5.684;2023-08-08T14:19:56;28.60;47.00
21489;DHT22;10906;45.194;5.684;2023-08-08T14:22:40;29.50;51.80
21489;DHT22;10906;45.194;5.684;2023-08-08T14:26:11;29.50;46.90
21489;DHT22;10906;45.194;5.684;2023-08-08T14:32:02;30.00;45.20
21489;DHT22;10906;45.194;5.684;2023-08-08T14:34:46;30.90;48.20
21489;DHT22;10906;45.194;5.684;2023-08-08T14:37:33;31.00;46.90
21489;DHT22;10906;45.194;5.684;2023-08-08T14:40:20;32.10;45.30
21489;DHT22;10906;45.194;5.684;2023-08-08T14:43:05;32.60;44.60
21489;DHT22;10906;45.194;5.684;2023-08-08T14:46:18;30.10;45.30
21489;DHT22;10906;45.194;5.684;2023-08-08T14:49:02;30.40;46.00
21489;DHT22;10906;45.194;5.684;2023-08-08T14:51:49;30.60;48.00
21489;DHT22;10906;45.194;5.684;2023-08-08T14:54:40;30.60;46.00
21489;DHT22;10906;45.194;5.684;2023-08-08T14:57:30;28.30;44.50
21489;DHT22;10906;45.194;5.684;2023-08-08T15:00:15;30.00;41.60
21489;DHT22;10906;45.194;5.684;2023-08-08T15:03:11;30.80;45.90
21489;DHT22;10906;45.194;5.684;2023-08-08T15:06:16;31.50;43.40
21489;DHT22;10906;45.194;5.684;2023-08-08T15:09:00;32.40;45.80
21489;DHT22;10906;45.194;5.684;2023-08-08T15:11:54;33.60;44.20
21489;DHT22;10906;45.194;5.684;2023-08-08T15:14:38;35.10;40.00
21489;DHT22;10906;45.194;5.684;2023-08-08T15:17:22;35.30;39.80
21489;DHT22;10906;45.194;5.684;2023-08-08T15:20:06;35.20;41.60
21489;DHT22;10906;45.194;5.684;2023-08-08T15:22:51;34.60;36.50
21489;DHT22;10906;45.194;5.684;2023-08-08T15:25:41;34.30;38.70
21489;DHT22;10906;45.194;5.684;2023-08-08T15:28:32;32.90;36.50
21489;DHT22;10906;45.194;5.684;2023-08-08T15:31:16;35.00;37.70
21489;DHT22;10906;45.194;5.684;2023-08-08T15:34:01;34.30;40.70
21489;DHT22;10906;45.194;5.684;2023-08-08T15:36:45;33.90;38.20
21489;DHT22;10906;45.194;5.684;2023-08-08T15:42:44;34.10;36.70
21489;DHT22;10906;45.194;5.684;2023-08-08T15:45:28;33.60;40.80
21489;DHT22;10906;45.194;5.684;2023-08-08T15:48:13;32.80;42.10
21489;DHT22;10906;45.194;5.684;2023-08-08T15:50:57;32.40;42.30
21489;DHT22;10906;45.194;5.684;2023-08-08T15:53:41;32.10;40.40
21489;DHT22;10906;45.194;5.684;2023-08-08T15:56:25;31.30;41.70
21489;DHT22;10906;45.194;5.684;2023-08-08T15:59:13;30.60;41.10
21489;DHT22;10906;45.194;5.684;2023-08-08T16:01:57;30.50;41.10
21489;DHT22;10906;45.194;5.684;2023-08-08T16:04:42;30.50;43.60
21489;DHT22;10906;45.194;5.684;2023-08-08T16:07:26;30.50;41.90
21489;DHT22;10906;45.194;5.684;2023-08-08T16:10:10;30.20;43.10
21489;DHT22;10906;45.194;5.684;2023-08-08T16:12:55;30.20;43.80
21489;DHT22;10906;45.194;5.684;2023-08-08T16:15:45;30.30;44.00
21489;DHT22;10906;45.194;5.684;2023-08-08T16:18:30;31.00;40.10
21489;DHT22;10906;45.194;5.684;2023-08-08T16:21:15;30.30;40.30
21489;DHT22;10906;45.194;5.684;2023-08-08T16:23:59;29.60;41.90
21489;DHT22;10906;45.194;5.684;2023-08-08T16:26:47;30.20;41.00
21489;DHT22;10906;45.194;5.684;2023-08-08T16:29:31;30.10;38.80
21489;DHT22;10906;45.194;5.684;2023-08-08T16:32:18;29.80;43.80
21489;DHT22;10906;45.194;5.684;2023-08-08T16:35:02;27.70;38.90
21489;DHT22;10906;45.194;5.684;2023-08-08T16:37:47;29.80;43.40
21489;DHT22;10906;45.194;5.684;2023-08-08T16:40:34;32.80;46.70
21489;DHT22;10906;45.194;5.684;2023-08-08T16:43:19;29.80;42.20
21489;DHT22;10906;45.194;5.684;2023-08-08T16:46:03;29.40;43.00
21489;DHT22;10906;45.194;5.684;2023-08-08T16:48:47;29.20;43.10
21489;DHT22;10906;45.194;5.684;2023-08-08T16:51:37;29.00;45.30
21489;DHT22;10906;45.194;5.684;2023-08-08T16:54:22;30.60;42.30
21489;DHT22;10906;45.194;5.684;2023-08-08T16:57:06;28.20;44.30
21489;DHT22;10906;45.194;5.684;2023-08-08T16:59:57;27.80;45.40
21489;DHT22;10906;45.194;5.684;2023-08-08T17:02:41;28.90;43.40
21489;DHT22;10906;45.194;5.684;2023-08-08T17:05:25;27.40;46.50
21489;DHT22;10906;45.194;5.684;2023-08-08T17:08:12;27.70;47.00
21489;DHT22;10906;45.194;5.684;2023-08-08T17:10:59;28.10;45.40
21489;DHT22;10906;45.194;5.684;2023-08-08T17:13:44;27.10;46.10
21489;DHT22;10906;45.194;5.684;2023-08-08T17:16:36;26.70;47.20
21489;DHT22;10906;45.194;5.684;2023-08-08T17:19:22;25.80;45.60
21489;DHT22;10906;45.194;5.684;2023-08-08T17:22:06;26.50;46.70
21489;DHT22;10906;45.194;5.684;2023-08-08T17:24:54;26.20;45.30
21489;DHT22;10906;45.194;5.684;2023-08-08T17:27:39;26.00;46.60
21489;DHT22;10906;45.194;5.684;2023-08-08T17:30:23;26.00;60.10
21489;DHT22;10906;45.194;5.684;2023-08-08T17:33:07;25.80;56.90
21489;DHT22;10906;45.194;5.684;2023-08-08T17:35:54;25.40;60.00
21489;DHT22;10906;45.194;5.684;2023-08-08T17:38:39;25.50;55.30
21489;DHT22;10906;45.194;5.684;2023-08-08T17:41:23;25.40;56.20
21489;DHT22;10906;45.194;5.684;2023-08-08T17:44:16;22.00;54.80
21489;DHT22;10906;45.194;5.684;2023-08-08T17:47:03;24.60;55.70
21489;DHT22;10906;45.194;5.684;2023-08-08T17:49:47;24.80;53.00
21489;DHT22;10906;45.194;5.684;2023-08-08T17:52:32;24.60;54.80
21489;DHT22;10906;45.194;5.684;2023-08-08T17:55:16;24.60;53.00
21489;DHT22;10906;45.194;5.684;2023-08-08T17:58:01;24.40;56.40
21489;DHT22;10906;45.194;5.684;2023-08-08T18:00:48;24.90;59.60
21489;DHT22;10906;45.194;5.684;2023-08-08T18:03:32;24.20;57.20
21489;DHT22;10906;45.194;5.684;2023-08-08T18:06:17;24.40;65.50
21489;DHT22;10906;45.194;5.684;2023-08-08T18:09:01;24.30;63.80
21489;DHT22;10906;45.194;5.684;2023-08-08T18:11:54;24.10;65.40
21489;DHT22;10906;45.194;5.684;2023-08-08T18:14:46;23.90;60.30
21489;DHT22;10906;45.194;5.684;2023-08-08T18:17:38;24.10;59.50
21489;DHT22;10906;45.194;5.684;2023-08-08T18:20:25;24.10;61.50
21489;DHT22;10906;45.194;5.684;2023-08-08T18:23:13;21.60;54.50
21489;DHT22;10906;45.194;5.684;2023-08-08T18:25:57;24.40;57.40
21489;DHT22;10906;45.194;5.684;2023-08-08T18:28:41;23.80;59.80
21489;DHT22;10906;45.194;5.684;2023-08-08T18:31:25;24.20;58.20
21489;DHT22;10906;45.194;5.684;2023-08-08T18:34:15;23.70;58.90
21489;DHT22;10906;45.194;5.684;2023-08-08T18:37:00;22.20;55.50
21489;DHT22;10906;45.194;5.684;2023-08-08T18:39:44;23.90;62.70
21489;DHT22;10906;45.194;5.684;2023-08-08T18:42:31;21.50;59.00
21489;DHT22;10906;45.194;5.684;2023-08-08T18:45:23;22.70;56.70
21489;DHT22;10906;45.194;5.684;2023-08-08T18:48:07;24.80;62.30
21489;DHT22;10906;45.194;5.684;2023-08-08T18:50:59;23.90;65.20
21489;DHT22;10906;45.194;5.684;2023-08-08T18:53:44;23.30;60.60
21489;DHT22;10906;45.194;5.684;2023-08-08T18:56:28;23.20;58.70
21489;DHT22;10906;45.194;5.684;2023-08-08T18:59:13;23.10;63.20
21489;DHT22;10906;45.194;5.684;2023-08-08T19:01:57;23.00;60.20
21489;DHT22;10906;45.194;5.684;2023-08-08T19:04:41;23.00;64.50
21489;DHT22;10906;45.194;5.684;2023-08-08T19:07:26;23.50;62.80
21489;DHT22;10906;45.194;5.684;2023-08-08T19:10:10;23.40;64.50
21489;DHT22;10906;45.194;5.684;2023-08-08T19:12:54;21.20;65.20
21489;DHT22;10906;45.194;5.684;2023-08-08T19:15:39;23.60;64.10
21489;DHT22;10906;45.194;5.684;2023-08-08T19:18:23;23.10;68.10
21489;DHT22;10906;45.194;5.684;2023-08-08T19:21:28;23.00;64.90
21489;DHT22;10906;45.194;5.684;2023-08-08T19:24:13;22.90;62.30
21489;DHT22;10906;45.194;5.684;2023-08-08T19:26:57;22.50;58.30
21489;DHT22;10906;45.194;5.684;2023-08-08T19:29:47;22.80;68.40
21489;DHT22;10906;45.194;5.684;2023-08-08T19:35:50;22.60;56.40
21489;DHT22;10906;45.194;5.684;2023-08-08T19:38:42;22.60;55.90
21489;DHT22;10906;45.194;5.684;2023-08-08T19:41:27;22.60;58.00
21489;DHT22;10906;45.194;5.684;2023-08-08T19:44:11;22.90;62.40
21489;DHT22;10906;45.194;5.684;2023-08-08T19:46:56;22.60;64.20
21489;DHT22;10906;45.194;5.684;2023-08-08T19:49:40;22.40;62.50
21489;DHT22;10906;45.194;5.684;2023-08-08T19:52:24;23.10;63.70
21489;DHT22;10906;45.194;5.684;2023-08-08T19:55:08;22.50;62.30
21489;DHT22;10906;45.194;5.684;2023-08-08T19:57:52;22.70;67.60
21489;DHT22;10906;45.194;5.684;2023-08-08T20:00:46;22.70;63.50
21489;DHT22;10906;45.194;5.684;2023-08-08T20:03:30;22.50;65.90
21489;DHT22;10906;45.194;5.684;2023-08-08T20:09:30;22.70;62.00
21489;DHT22;10906;45.194;5.684;2023-08-08T20:12:14;22.00;66.50
21489;DHT22;10906;45.194;5.684;2023-08-08T20:14:59;22.30;61.20
21489;DHT22;10906;45.194;5.684;2023-08-08T20:17:44;21.80;63.00
21489;DHT22;10906;45.194;5.684;2023-08-08T20:20:30;21.80;67.30
21489;DHT22;10906;45.194;5.684;2023-08-08T20:23:14;22.30;63.50
21489;DHT22;10906;45.194;5.684;2023-08-08T20:26:02;21.90;67.00
21489;DHT22;10906;45.194;5.684;2023-08-08T20:28:48;21.90;60.30
21489;DHT22;10906;45.194;5.684;2023-08-08T20:31:35;22.50;61.90
21489;DHT22;10906;45.194;5.684;2023-08-08T20:34:26;23.50;62.00
21489;DHT22;10906;45.194;5.684;2023-08-08T20:37:35;19.30;57.90
21489;DHT22;10906;45.194;5.684;2023-08-08T20:40:19;21.40;60.10
21489;DHT22;10906;45.194;5.684;2023-08-08T20:43:03;21.90;62.00
21489;DHT22;10906;45.194;5.684;2023-08-08T20:45:51;21.20;61.90
21489;DHT22;10906;45.194;5.684;2023-08-08T20:48:41;21.60;58.50
21489;DHT22;10906;45.194;5.684;2023-08-08T20:51:34;22.90;61.60
21489;DHT22;10906;45.194;5.684;2023-08-08T20:54:19;21.40;64.70
21489;DHT22;10906;45.194;5.684;2023-08-08T20:57:07;21.70;62.20
21489;DHT22;10906;45.194;5.684;2023-08-08T21:00:09;21.80;57.90
21489;DHT22;10906;45.194;5.684;2023-08-08T21:02:59;20.20;57.20
21489;DHT22;10906;45.194;5.684;2023-08-08T21:05:53;21.70;59.20
21489;DHT22;10906;45.194;5.684;2023-08-08T21:08:41;21.80;59.80
21489;DHT22;10906;45.194;5.684;2023-08-08T21:11:28;20.40;58.10
21489;DHT22;10906;45.194;5.684;2023-08-08T21:14:15;21.10;59.00
21489;DHT22;10906;45.194;5.684;2023-08-08T21:17:03;21.00;60.00
21489;DHT22;10906;45.194;5.684;2023-08-08T21:20:25;21.10;59.60
21489;DHT22;10906;45.194;5.684;2023-08-08T21:23:17;21.00;57.40
21489;DHT22;10906;45.194;5.684;2023-08-08T21:26:01;20.80;57.90
21489;DHT22;10906;45.194;5.684;2023-08-08T21:28:46;20.80;58.90
21489;DHT22;10906;45.194;5.684;2023-08-08T21:31:30;20.70;59.60
21489;DHT22;10906;45.194;5.684;2023-08-08T21:34:14;17.00;56.30
21489;DHT22;10906;45.194;5.684;2023-08-08T21:37:01;20.60;59.20
21489;DHT22;10906;45.194;5.684;2023-08-08T21:39:52;20.60;59.60
21489;DHT22;10906;45.194;5.684;2023-08-08T21:42:36;20.60;60.50
21489;DHT22;10906;45.194;5.684;2023-08-08T21:45:21;20.60;61.10
21489;DHT22;10906;45.194;5.684;2023-08-08T21:48:07;20.50;60.60
21489;DHT22;10906;45.194;5.684;2023-08-08T21:50:54;20.50;60.90
21489;DHT22;10906;45.194;5.684;2023-08-08T21:53:43;20.40;61.10
21489;DHT22;10906;45.194;5.684;2023-08-08T21:56:30;20.40;61.10
21489;DHT22;10906;45.194;5.684;2023-08-08T21:59:17;20.30;61.50
